sensor_id;sensor_type;location;lat;lon;timestamp;P1;durP1;ratioP1;P2;durP2;ratioP2
44995;SDS011;30729;49.486;10.792;2023-03-24T00:01:03;6.53;;;2.20;;
44995;SDS011;30729;49.486;10.792;2023-03-24T00:04:28;6.18;;;2.50;;
44995;SDS011;30729;49.486;10.792;2023-03-24T00:07:54;7.50;;;2.60;;
44995;SDS011;30729;49.486;10.792;2023-03-24T00:11:18;5.68;;;2.55;;
44995;SDS011;30729;49.486;10.792;2023-03-24T00:14:43;5.68;;;2.28;;
44995;SDS011;30729;49.486;10.792;2023-03-24T00:18:07;6.57;;;2.35;;
44995;SDS011;30729;49.486;10.792;2023-03-24T00:21:30;6.20;;;2.53;;
44995;SDS011;30729;49.486;10.792;2023-03-24T00:24:55;6.93;;;2.55;;
44995;SDS011;30729;49.486;10.792;2023-03-24T00:28:46;6.43;;;3.33;;
44995;SDS011;30729;49.486;10.792;2023-03-24T00:32:10;6.57;;;2.83;;
44995;SDS011;30729;49.486;10.792;2023-03-24T00:35:35;4.95;;;2.50;;
44995;SDS011;30729;49.486;10.792;2023-03-24T00:38:59;6.82;;;2.55;;
44995;SDS011;30729;49.486;10.792;2023-03-24T00:42:23;4.20;;;2.20;;
44995;SDS011;30729;49.486;10.792;2023-03-24T00:45:47;7.35;;;2.38;;
44995;SDS011;30729;49.486;10.792;2023-03-24T00:49:19;6.90;;;2.72;;
44995;SDS011;30729;49.486;10.792;2023-03-24T00:52:44;5.43;;;2.78;;
44995;SDS011;30729;49.486;10.792;2023-03-24T00:56:08;6.45;;;3.15;;
44995;SDS011;30729;49.486;10.792;2023-03-24T00:59:32;8.00;;;2.75;;
44995;SDS011;30729;49.486;10.792;2023-03-24T01:02:56;7.05;;;2.95;;
44995;SDS011;30729;49.486;10.792;2023-03-24T01:06:20;7.30;;;3.15;;
44995;SDS011;30729;49.486;10.792;2023-03-24T01:09:45;6.78;;;3.28;;
44995;SDS011;30729;49.486;10.792;2023-03-24T01:13:20;8.27;;;2.72;;
44995;SDS011;30729;49.486;10.792;2023-03-24T01:16:44;8.02;;;3.20;;
44995;SDS011;30729;49.486;10.792;2023-03-24T01:20:10;6.78;;;3.00;;
44995;SDS011;30729;49.486;10.792;2023-03-24T01:23:35;6.47;;;2.92;;
44995;SDS011;30729;49.486;10.792;2023-03-24T01:26:59;8.00;;;3.20;;
44995;SDS011;30729;49.486;10.792;2023-03-24T01:30:25;8.13;;;3.40;;
44995;SDS011;30729;49.486;10.792;2023-03-24T01:33:50;5.70;;;3.00;;
44995;SDS011;30729;49.486;10.792;2023-03-24T01:37:13;7.30;;;3.47;;
44995;SDS011;30729;49.486;10.792;2023-03-24T01:40:39;6.95;;;3.38;;
44995;SDS011;30729;49.486;10.792;2023-03-24T01:48:09;7.43;;;3.80;;
44995;SDS011;30729;49.486;10.792;2023-03-24T01:51:38;8.73;;;3.40;;
44995;SDS011;30729;49.486;10.792;2023-03-24T01:55:06;9.18;;;4.07;;
44995;SDS011;30729;49.486;10.792;2023-03-24T01:58:32;8.27;;;3.92;;
44995;SDS011;30729;49.486;10.792;2023-03-24T02:02:00;8.13;;;3.83;;
44995;SDS011;30729;49.486;10.792;2023-03-24T02:05:28;9.15;;;3.88;;
44995;SDS011;30729;49.486;10.792;2023-03-24T02:08:53;11.20;;;4.00;;
44995;SDS011;30729;49.486;10.792;2023-03-24T02:12:17;6.53;;;3.80;;
44995;SDS011;30729;49.486;10.792;2023-03-24T02:15:47;10.90;;;4.22;;
44995;SDS011;30729;49.486;10.792;2023-03-24T02:22:52;6.78;;;3.58;;
44995;SDS011;30729;49.486;10.792;2023-03-24T02:26:33;9.20;;;3.83;;
44995;SDS011;30729;49.486;10.792;2023-03-24T02:30:22;7.85;;;4.20;;
44995;SDS011;30729;49.486;10.792;2023-03-24T02:34:11;13.15;;;4.38;;
44995;SDS011;30729;49.486;10.792;2023-03-24T02:38:07;7.90;;;4.03;;
44995;SDS011;30729;49.486;10.792;2023-03-24T02:46:04;8.05;;;3.85;;
44995;SDS011;30729;49.486;10.792;2023-03-24T02:49:40;7.00;;;3.35;;
44995;SDS011;30729;49.486;10.792;2023-03-24T02:53:31;7.95;;;3.65;;
44995;SDS011;30729;49.486;10.792;2023-03-24T02:57:05;7.32;;;3.50;;
44995;SDS011;30729;49.486;10.792;2023-03-24T03:00:49;7.65;;;3.20;;
44995;SDS011;30729;49.486;10.792;2023-03-24T03:04:25;7.82;;;3.80;;
44995;SDS011;30729;49.486;10.792;2023-03-24T03:07:58;8.40;;;3.65;;
44995;SDS011;30729;49.486;10.792;2023-03-24T03:11:25;7.20;;;3.85;;
44995;SDS011;30729;49.486;10.792;2023-03-24T03:14:51;6.70;;;3.43;;
44995;SDS011;30729;49.486;10.792;2023-03-24T03:18:21;6.80;;;3.58;;
44995;SDS011;30729;49.486;10.792;2023-03-24T03:21:53;8.93;;;3.30;;
44995;SDS011;30729;49.486;10.792;2023-03-24T03:25:21;8.30;;;3.67;;
44995;SDS011;30729;49.486;10.792;2023-03-24T03:28:49;8.10;;;4.00;;
44995;SDS011;30729;49.486;10.792;2023-03-24T03:32:19;7.93;;;3.38;;
44995;SDS011;30729;49.486;10.792;2023-03-24T03:35:57;7.15;;;3.47;;
44995;SDS011;30729;49.486;10.792;2023-03-24T03:39:28;7.50;;;3.75;;
44995;SDS011;30729;49.486;10.792;2023-03-24T03:43:14;6.85;;;3.30;;
44995;SDS011;30729;49.486;10.792;2023-03-24T03:46:38;9.30;;;3.72;;
44995;SDS011;30729;49.486;10.792;2023-03-24T03:50:02;9.07;;;3.63;;
44995;SDS011;30729;49.486;10.792;2023-03-24T03:53:28;7.90;;;3.67;;
44995;SDS011;30729;49.486;10.792;2023-03-24T03:56:55;7.72;;;3.38;;
44995;SDS011;30729;49.486;10.792;2023-03-24T04:00:19;9.07;;;3.53;;
44995;SDS011;30729;49.486;10.792;2023-03-24T04:15:06;6.93;;;3.63;;
44995;SDS011;30729;49.486;10.792;2023-03-24T04:18:49;7.30;;;3.63;;
44995;SDS011;30729;49.486;10.792;2023-03-24T04:22:38;7.35;;;3.78;;
44995;SDS011;30729;49.486;10.792;2023-03-24T04:26:37;7.45;;;3.90;;
44995;SDS011;30729;49.486;10.792;2023-03-24T04:30:14;8.35;;;3.38;;
44995;SDS011;30729;49.486;10.792;2023-03-24T04:33:50;8.40;;;3.78;;
44995;SDS011;30729;49.486;10.792;2023-03-24T04:37:20;6.78;;;3.63;;
44995;SDS011;30729;49.486;10.792;2023-03-24T04:40:52;6.90;;;3.65;;
44995;SDS011;30729;49.486;10.792;2023-03-24T04:47:44;6.65;;;3.60;;
44995;SDS011;30729;49.486;10.792;2023-03-24T04:51:12;7.53;;;3.90;;
44995;SDS011;30729;49.486;10.792;2023-03-24T04:54:36;6.65;;;3.50;;
44995;SDS011;30729;49.486;10.792;2023-03-24T04:58:08;7.82;;;3.88;;
44995;SDS011;30729;49.486;10.792;2023-03-24T05:01:32;8.77;;;3.50;;
44995;SDS011;30729;49.486;10.792;2023-03-24T05:04:56;8.27;;;3.40;;
44995;SDS011;30729;49.486;10.792;2023-03-24T05:08:20;7.28;;;3.30;;
44995;SDS011;30729;49.486;10.792;2023-03-24T05:11:46;7.35;;;3.65;;
44995;SDS011;30729;49.486;10.792;2023-03-24T05:15:10;7.25;;;3.35;;
44995;SDS011;30729;49.486;10.792;2023-03-24T05:18:34;6.40;;;3.38;;
44995;SDS011;30729;49.486;10.792;2023-03-24T05:21:57;7.70;;;3.33;;
44995;SDS011;30729;49.486;10.792;2023-03-24T05:25:21;6.43;;;3.13;;
44995;SDS011;30729;49.486;10.792;2023-03-24T05:28:45;8.45;;;4.03;;
44995;SDS011;30729;49.486;10.792;2023-03-24T05:32:09;10.10;;;3.75;;
44995;SDS011;30729;49.486;10.792;2023-03-24T05:35:33;6.40;;;2.90;;
44995;SDS011;30729;49.486;10.792;2023-03-24T05:38:57;8.63;;;3.63;;
44995;SDS011;30729;49.486;10.792;2023-03-24T05:42:21;10.05;;;3.75;;
44995;SDS011;30729;49.486;10.792;2023-03-24T05:45:45;7.10;;;3.13;;
44995;SDS011;30729;49.486;10.792;2023-03-24T05:49:08;8.00;;;3.58;;
44995;SDS011;30729;49.486;10.792;2023-03-24T05:52:33;6.43;;;3.10;;
44995;SDS011;30729;49.486;10.792;2023-03-24T05:55:57;6.65;;;2.97;;
44995;SDS011;30729;49.486;10.792;2023-03-24T05:59:21;18.52;;;8.10;;
44995;SDS011;30729;49.486;10.792;2023-03-24T06:02:45;8.25;;;4.00;;
44995;SDS011;30729;49.486;10.792;2023-03-24T06:06:08;7.53;;;3.55;;
44995;SDS011;30729;49.486;10.792;2023-03-24T06:09:32;7.75;;;3.80;;
44995;SDS011;30729;49.486;10.792;2023-03-24T06:12:56;6.32;;;3.38;;
44995;SDS011;30729;49.486;10.792;2023-03-24T06:16:26;7.85;;;3.83;;
44995;SDS011;30729;49.486;10.792;2023-03-24T06:19:52;7.25;;;3.67;;
44995;SDS011;30729;49.486;10.792;2023-03-24T06:23:20;9.52;;;3.70;;
44995;SDS011;30729;49.486;10.792;2023-03-24T06:26:44;9.77;;;3.95;;
44995;SDS011;30729;49.486;10.792;2023-03-24T06:30:10;8.05;;;3.75;;
44995;SDS011;30729;49.486;10.792;2023-03-24T06:33:43;7.95;;;4.13;;
44995;SDS011;30729;49.486;10.792;2023-03-24T06:37:07;6.85;;;3.63;;
44995;SDS011;30729;49.486;10.792;2023-03-24T06:40:31;7.40;;;3.42;;
44995;SDS011;30729;49.486;10.792;2023-03-24T06:43:55;6.93;;;3.42;;
44995;SDS011;30729;49.486;10.792;2023-03-24T06:47:19;8.95;;;3.90;;
44995;SDS011;30729;49.486;10.792;2023-03-24T06:50:42;7.40;;;3.67;;
44995;SDS011;30729;49.486;10.792;2023-03-24T06:54:06;7.40;;;3.53;;
44995;SDS011;30729;49.486;10.792;2023-03-24T06:57:32;7.40;;;2.80;;
44995;SDS011;30729;49.486;10.792;2023-03-24T07:00:56;5.50;;;2.47;;
44995;SDS011;30729;49.486;10.792;2023-03-24T07:04:20;8.43;;;2.88;;
44995;SDS011;30729;49.486;10.792;2023-03-24T07:07:44;6.20;;;2.67;;
44995;SDS011;30729;49.486;10.792;2023-03-24T07:11:08;7.15;;;3.08;;
44995;SDS011;30729;49.486;10.792;2023-03-24T07:14:32;4.68;;;2.15;;
44995;SDS011;30729;49.486;10.792;2023-03-24T07:17:56;5.07;;;2.10;;
44995;SDS011;30729;49.486;10.792;2023-03-24T07:21:20;4.18;;;2.00;;
44995;SDS011;30729;49.486;10.792;2023-03-24T07:24:44;4.65;;;1.80;;
44995;SDS011;30729;49.486;10.792;2023-03-24T07:28:08;5.05;;;1.70;;
44995;SDS011;30729;49.486;10.792;2023-03-24T07:31:32;4.13;;;1.88;;
44995;SDS011;30729;49.486;10.792;2023-03-24T07:34:58;2.72;;;1.40;;
44995;SDS011;30729;49.486;10.792;2023-03-24T07:38:23;4.03;;;1.50;;
44995;SDS011;30729;49.486;10.792;2023-03-24T07:41:47;3.33;;;1.60;;
44995;SDS011;30729;49.486;10.792;2023-03-24T07:45:11;3.00;;;1.40;;
44995;SDS011;30729;49.486;10.792;2023-03-24T07:48:35;4.97;;;1.50;;
44995;SDS011;30729;49.486;10.792;2023-03-24T07:51:59;4.60;;;1.73;;
44995;SDS011;30729;49.486;10.792;2023-03-24T07:55:23;4.15;;;1.70;;
44995;SDS011;30729;49.486;10.792;2023-03-24T07:58:47;4.20;;;1.73;;
44995;SDS011;30729;49.486;10.792;2023-03-24T08:02:15;2.90;;;1.60;;
44995;SDS011;30729;49.486;10.792;2023-03-24T08:05:39;3.97;;;1.55;;
44995;SDS011;30729;49.486;10.792;2023-03-24T08:09:04;2.83;;;1.60;;
44995;SDS011;30729;49.486;10.792;2023-03-24T08:12:27;5.00;;;1.52;;
44995;SDS011;30729;49.486;10.792;2023-03-24T08:15:51;2.85;;;1.40;;
44995;SDS011;30729;49.486;10.792;2023-03-24T08:19:15;3.88;;;1.70;;
44995;SDS011;30729;49.486;10.792;2023-03-24T08:22:40;3.25;;;1.40;;
44995;SDS011;30729;49.486;10.792;2023-03-24T08:26:05;3.67;;;1.80;;
44995;SDS011;30729;49.486;10.792;2023-03-24T08:29:31;3.08;;;1.38;;
44995;SDS011;30729;49.486;10.792;2023-03-24T08:32:56;3.30;;;1.50;;
44995;SDS011;30729;49.486;10.792;2023-03-24T08:36:21;2.65;;;1.38;;
44995;SDS011;30729;49.486;10.792;2023-03-24T08:39:45;4.68;;;1.80;;
44995;SDS011;30729;49.486;10.792;2023-03-24T08:43:11;4.20;;;2.20;;
44995;SDS011;30729;49.486;10.792;2023-03-24T08:46:36;4.50;;;1.90;;
44995;SDS011;30729;49.486;10.792;2023-03-24T08:49:59;4.10;;;1.75;;
44995;SDS011;30729;49.486;10.792;2023-03-24T08:53:23;4.78;;;2.10;;
44995;SDS011;30729;49.486;10.792;2023-03-24T08:56:50;4.32;;;1.83;;
44995;SDS011;30729;49.486;10.792;2023-03-24T09:00:14;4.07;;;2.03;;
44995;SDS011;30729;49.486;10.792;2023-03-24T09:03:39;5.00;;;2.03;;
44995;SDS011;30729;49.486;10.792;2023-03-24T09:07:03;6.43;;;2.47;;
44995;SDS011;30729;49.486;10.792;2023-03-24T09:10:27;5.25;;;2.35;;
44995;SDS011;30729;49.486;10.792;2023-03-24T09:13:51;5.82;;;2.63;;
44995;SDS011;30729;49.486;10.792;2023-03-24T09:17:15;4.88;;;2.30;;
44995;SDS011;30729;49.486;10.792;2023-03-24T09:20:40;4.70;;;2.40;;
44995;SDS011;30729;49.486;10.792;2023-03-24T09:24:05;7.78;;;2.45;;
44995;SDS011;30729;49.486;10.792;2023-03-24T09:27:30;5.07;;;2.40;;
44995;SDS011;30729;49.486;10.792;2023-03-24T09:30:57;5.35;;;2.53;;
44995;SDS011;30729;49.486;10.792;2023-03-24T09:34:22;8.15;;;2.38;;
44995;SDS011;30729;49.486;10.792;2023-03-24T09:37:46;5.82;;;2.90;;
44995;SDS011;30729;49.486;10.792;2023-03-24T09:41:21;6.28;;;2.63;;
44995;SDS011;30729;49.486;10.792;2023-03-24T09:44:51;5.57;;;2.90;;
44995;SDS011;30729;49.486;10.792;2023-03-24T09:48:20;7.35;;;2.95;;
44995;SDS011;30729;49.486;10.792;2023-03-24T09:51:55;5.22;;;2.45;;
44995;SDS011;30729;49.486;10.792;2023-03-24T09:55:27;5.30;;;2.72;;
44995;SDS011;30729;49.486;10.792;2023-03-24T09:59:38;6.32;;;2.70;;
44995;SDS011;30729;49.486;10.792;2023-03-24T10:02:47;5.18;;;2.05;;
44995;SDS011;30729;49.486;10.792;2023-03-24T10:06:30;5.32;;;2.50;;
44995;SDS011;30729;49.486;10.792;2023-03-24T10:10:14;7.25;;;2.78;;
44995;SDS011;30729;49.486;10.792;2023-03-24T10:21:21;4.90;;;2.10;;
44995;SDS011;30729;49.486;10.792;2023-03-24T10:24:55;5.60;;;2.22;;
44995;SDS011;30729;49.486;10.792;2023-03-24T10:28:42;5.20;;;2.00;;
44995;SDS011;30729;49.486;10.792;2023-03-24T10:32:17;2.42;;;1.55;;
44995;SDS011;30729;49.486;10.792;2023-03-24T10:35:47;4.82;;;1.90;;
44995;SDS011;30729;49.486;10.792;2023-03-24T10:39:14;2.58;;;1.27;;
44995;SDS011;30729;49.486;10.792;2023-03-24T10:42:40;3.85;;;1.67;;
44995;SDS011;30729;49.486;10.792;2023-03-24T10:46:04;3.88;;;2.00;;
44995;SDS011;30729;49.486;10.792;2023-03-24T10:49:29;3.97;;;1.80;;
44995;SDS011;30729;49.486;10.792;2023-03-24T10:52:55;4.05;;;1.65;;
44995;SDS011;30729;49.486;10.792;2023-03-24T10:56:41;3.70;;;1.63;;
44995;SDS011;30729;49.486;10.792;2023-03-24T11:00:07;3.95;;;1.65;;
44995;SDS011;30729;49.486;10.792;2023-03-24T11:03:46;2.10;;;1.30;;
44995;SDS011;30729;49.486;10.792;2023-03-24T11:07:17;2.47;;;1.50;;
44995;SDS011;30729;49.486;10.792;2023-03-24T11:10:41;3.67;;;1.80;;
44995;SDS011;30729;49.486;10.792;2023-03-24T11:14:09;3.55;;;1.48;;
44995;SDS011;30729;49.486;10.792;2023-03-24T11:17:43;4.82;;;2.13;;
44995;SDS011;30729;49.486;10.792;2023-03-24T11:21:21;4.07;;;1.70;;
44995;SDS011;30729;49.486;10.792;2023-03-24T11:24:49;3.40;;;1.70;;
44995;SDS011;30729;49.486;10.792;2023-03-24T11:28:19;4.82;;;1.50;;
44995;SDS011;30729;49.486;10.792;2023-03-24T11:31:50;3.15;;;1.50;;
44995;SDS011;30729;49.486;10.792;2023-03-24T11:35:15;4.07;;;2.13;;
44995;SDS011;30729;49.486;10.792;2023-03-24T11:42:44;4.15;;;1.70;;
44995;SDS011;30729;49.486;10.792;2023-03-24T11:46:12;3.95;;;1.60;;
44995;SDS011;30729;49.486;10.792;2023-03-24T11:49:43;2.95;;;1.67;;
44995;SDS011;30729;49.486;10.792;2023-03-24T11:53:17;2.15;;;0.98;;
44995;SDS011;30729;49.486;10.792;2023-03-24T11:56:49;3.63;;;1.55;;
44995;SDS011;30729;49.486;10.792;2023-03-24T12:00:24;4.85;;;1.60;;
44995;SDS011;30729;49.486;10.792;2023-03-24T12:07:35;1.85;;;1.20;;
44995;SDS011;30729;49.486;10.792;2023-03-24T12:11:23;2.95;;;1.30;;
44995;SDS011;30729;49.486;10.792;2023-03-24T12:15:05;2.13;;;1.35;;
44995;SDS011;30729;49.486;10.792;2023-03-24T12:26:23;3.45;;;1.60;;
44995;SDS011;30729;49.486;10.792;2023-03-24T12:37:48;2.45;;;1.08;;
44995;SDS011;30729;49.486;10.792;2023-03-24T12:45:11;2.67;;;1.20;;
44995;SDS011;30729;49.486;10.792;2023-03-24T12:48:57;2.38;;;1.10;;
44995;SDS011;30729;49.486;10.792;2023-03-24T12:56:17;2.55;;;1.40;;
44995;SDS011;30729;49.486;10.792;2023-03-24T12:59:45;6.43;;;1.57;;
44995;SDS011;30729;49.486;10.792;2023-03-24T13:07:17;5.78;;;2.20;;
44995;SDS011;30729;49.486;10.792;2023-03-24T13:10:47;3.63;;;1.30;;
44995;SDS011;30729;49.486;10.792;2023-03-24T13:14:48;4.40;;;1.60;;
44995;SDS011;30729;49.486;10.792;2023-03-24T13:21:48;5.55;;;2.72;;
44995;SDS011;30729;49.486;10.792;2023-03-24T13:25:21;4.90;;;1.67;;
44995;SDS011;30729;49.486;10.792;2023-03-24T13:33:05;3.10;;;1.60;;
44995;SDS011;30729;49.486;10.792;2023-03-24T13:36:41;4.63;;;1.73;;
44995;SDS011;30729;49.486;10.792;2023-03-24T13:43:48;4.07;;;1.67;;
44995;SDS011;30729;49.486;10.792;2023-03-24T13:47:16;3.15;;;1.42;;
44995;SDS011;30729;49.486;10.792;2023-03-24T13:50:58;2.55;;;1.67;;
44995;SDS011;30729;49.486;10.792;2023-03-24T13:54:25;5.75;;;2.22;;
44995;SDS011;30729;49.486;10.792;2023-03-24T13:57:55;4.93;;;2.27;;
44995;SDS011;30729;49.486;10.792;2023-03-24T14:01:30;3.78;;;2.08;;
44995;SDS011;30729;49.486;10.792;2023-03-24T14:05:05;5.55;;;2.05;;
44995;SDS011;30729;49.486;10.792;2023-03-24T14:08:39;5.78;;;2.55;;
44995;SDS011;30729;49.486;10.792;2023-03-24T14:12:20;1.92;;;1.10;;
44995;SDS011;30729;49.486;10.792;2023-03-24T14:15:47;1.23;;;1.00;;
44995;SDS011;30729;49.486;10.792;2023-03-24T14:19:19;3.30;;;1.15;;
44995;SDS011;30729;49.486;10.792;2023-03-24T14:22:52;2.92;;;1.30;;
44995;SDS011;30729;49.486;10.792;2023-03-24T14:30:00;4.55;;;1.40;;
44995;SDS011;30729;49.486;10.792;2023-03-24T14:33:26;3.45;;;1.40;;
44995;SDS011;30729;49.486;10.792;2023-03-24T14:36:58;2.90;;;1.40;;
44995;SDS011;30729;49.486;10.792;2023-03-24T14:40:33;6.72;;;2.80;;
44995;SDS011;30729;49.486;10.792;2023-03-24T14:44:03;2.22;;;1.05;;
44995;SDS011;30729;49.486;10.792;2023-03-24T14:48:14;2.05;;;1.00;;
44995;SDS011;30729;49.486;10.792;2023-03-24T14:51:49;6.10;;;1.20;;
44995;SDS011;30729;49.486;10.792;2023-03-24T14:55:17;3.17;;;1.38;;
44995;SDS011;30729;49.486;10.792;2023-03-24T14:58:45;2.67;;;1.17;;
44995;SDS011;30729;49.486;10.792;2023-03-24T15:02:27;3.88;;;1.15;;
44995;SDS011;30729;49.486;10.792;2023-03-24T15:06:14;1.97;;;1.13;;
44995;SDS011;30729;49.486;10.792;2023-03-24T15:09:39;0.95;;;0.65;;
44995;SDS011;30729;49.486;10.792;2023-03-24T15:13:30;3.95;;;0.88;;
44995;SDS011;30729;49.486;10.792;2023-03-24T15:16:57;1.60;;;0.90;;
44995;SDS011;30729;49.486;10.792;2023-03-24T15:20:24;1.63;;;0.93;;
44995;SDS011;30729;49.486;10.792;2023-03-24T15:23:51;2.47;;;0.90;;
44995;SDS011;30729;49.486;10.792;2023-03-24T15:27:17;5.20;;;1.08;;
44995;SDS011;30729;49.486;10.792;2023-03-24T15:30:45;3.28;;;1.25;;
44995;SDS011;30729;49.486;10.792;2023-03-24T15:34:23;3.25;;;1.33;;
44995;SDS011;30729;49.486;10.792;2023-03-24T15:37:54;1.92;;;0.93;;
44995;SDS011;30729;49.486;10.792;2023-03-24T15:41:19;4.90;;;1.33;;
44995;SDS011;30729;49.486;10.792;2023-03-24T15:44:46;5.38;;;1.40;;
44995;SDS011;30729;49.486;10.792;2023-03-24T15:48:18;6.63;;;1.77;;
44995;SDS011;30729;49.486;10.792;2023-03-24T15:51:47;7.43;;;2.05;;
44995;SDS011;30729;49.486;10.792;2023-03-24T15:55:25;6.95;;;2.22;;
44995;SDS011;30729;49.486;10.792;2023-03-24T15:58:56;3.63;;;1.40;;
44995;SDS011;30729;49.486;10.792;2023-03-24T16:02:40;3.22;;;1.02;;
44995;SDS011;30729;49.486;10.792;2023-03-24T16:06:11;1.58;;;0.80;;
44995;SDS011;30729;49.486;10.792;2023-03-24T16:09:53;9.37;;;3.30;;
44995;SDS011;30729;49.486;10.792;2023-03-24T16:13:25;5.75;;;1.90;;
44995;SDS011;30729;49.486;10.792;2023-03-24T16:16:57;8.20;;;2.35;;
44995;SDS011;30729;49.486;10.792;2023-03-24T16:20:21;7.85;;;2.10;;
44995;SDS011;30729;49.486;10.792;2023-03-24T16:23:50;6.55;;;2.30;;
44995;SDS011;30729;49.486;10.792;2023-03-24T16:27:15;4.25;;;2.10;;
44995;SDS011;30729;49.486;10.792;2023-03-24T16:34:05;4.88;;;1.23;;
44995;SDS011;30729;49.486;10.792;2023-03-24T16:37:29;4.30;;;1.45;;
44995;SDS011;30729;49.486;10.792;2023-03-24T16:40:53;7.57;;;2.13;;
44995;SDS011;30729;49.486;10.792;2023-03-24T16:44:18;4.68;;;1.50;;
44995;SDS011;30729;49.486;10.792;2023-03-24T16:47:42;5.63;;;1.50;;
44995;SDS011;30729;49.486;10.792;2023-03-24T16:51:11;6.93;;;2.33;;
44995;SDS011;30729;49.486;10.792;2023-03-24T16:54:36;11.88;;;3.05;;
44995;SDS011;30729;49.486;10.792;2023-03-24T16:58:02;8.55;;;2.20;;
44995;SDS011;30729;49.486;10.792;2023-03-24T17:01:33;6.70;;;2.03;;
44995;SDS011;30729;49.486;10.792;2023-03-24T17:04:58;6.88;;;1.88;;
44995;SDS011;30729;49.486;10.792;2023-03-24T17:08:23;6.53;;;2.40;;
44995;SDS011;30729;49.486;10.792;2023-03-24T17:11:48;7.65;;;1.67;;
44995;SDS011;30729;49.486;10.792;2023-03-24T17:15:23;6.47;;;1.85;;
44995;SDS011;30729;49.486;10.792;2023-03-24T17:18:49;6.47;;;1.52;;
44995;SDS011;30729;49.486;10.792;2023-03-24T17:22:13;5.10;;;1.55;;
44995;SDS011;30729;49.486;10.792;2023-03-24T17:25:39;4.75;;;1.30;;
44995;SDS011;30729;49.486;10.792;2023-03-24T17:29:04;7.10;;;2.85;;
44995;SDS011;30729;49.486;10.792;2023-03-24T17:32:29;6.93;;;2.63;;
44995;SDS011;30729;49.486;10.792;2023-03-24T17:35:53;4.80;;;2.15;;
44995;SDS011;30729;49.486;10.792;2023-03-24T17:39:17;8.63;;;2.88;;
44995;SDS011;30729;49.486;10.792;2023-03-24T17:42:43;8.98;;;4.07;;
44995;SDS011;30729;49.486;10.792;2023-03-24T17:46:09;7.00;;;2.00;;
44995;SDS011;30729;49.486;10.792;2023-03-24T17:49:33;5.63;;;1.58;;
44995;SDS011;30729;49.486;10.792;2023-03-24T17:52:57;8.80;;;3.00;;
44995;SDS011;30729;49.486;10.792;2023-03-24T17:56:20;12.90;;;3.85;;
44995;SDS011;30729;49.486;10.792;2023-03-24T17:59:45;11.55;;;3.53;;
44995;SDS011;30729;49.486;10.792;2023-03-24T18:03:08;4.72;;;1.55;;
44995;SDS011;30729;49.486;10.792;2023-03-24T18:06:32;6.65;;;1.90;;
44995;SDS011;30729;49.486;10.792;2023-03-24T18:09:56;7.38;;;2.60;;
44995;SDS011;30729;49.486;10.792;2023-03-24T18:13:26;7.85;;;2.70;;
44995;SDS011;30729;49.486;10.792;2023-03-24T18:16:50;7.57;;;2.20;;
44995;SDS011;30729;49.486;10.792;2023-03-24T18:20:14;8.98;;;2.10;;
44995;SDS011;30729;49.486;10.792;2023-03-24T18:23:37;5.90;;;2.08;;
44995;SDS011;30729;49.486;10.792;2023-03-24T18:27:01;5.35;;;2.13;;
44995;SDS011;30729;49.486;10.792;2023-03-24T18:30:25;5.80;;;2.50;;
44995;SDS011;30729;49.486;10.792;2023-03-24T18:33:55;6.22;;;1.73;;
44995;SDS011;30729;49.486;10.792;2023-03-24T18:37:19;5.90;;;1.60;;
44995;SDS011;30729;49.486;10.792;2023-03-24T18:40:59;7.53;;;1.70;;
44995;SDS011;30729;49.486;10.792;2023-03-24T18:44:23;6.47;;;1.83;;
44995;SDS011;30729;49.486;10.792;2023-03-24T18:47:46;11.05;;;2.22;;
44995;SDS011;30729;49.486;10.792;2023-03-24T18:51:11;8.10;;;1.85;;
44995;SDS011;30729;49.486;10.792;2023-03-24T18:54:35;6.65;;;2.53;;
44995;SDS011;30729;49.486;10.792;2023-03-24T18:57:59;5.38;;;1.83;;
44995;SDS011;30729;49.486;10.792;2023-03-24T19:01:23;9.70;;;2.35;;
44995;SDS011;30729;49.486;10.792;2023-03-24T19:04:47;10.02;;;4.00;;
44995;SDS011;30729;49.486;10.792;2023-03-24T19:08:13;9.30;;;3.83;;
44995;SDS011;30729;49.486;10.792;2023-03-24T19:11:37;13.60;;;6.75;;
44995;SDS011;30729;49.486;10.792;2023-03-24T19:15:01;10.15;;;3.42;;
44995;SDS011;30729;49.486;10.792;2023-03-24T19:18:25;12.55;;;4.25;;
44995;SDS011;30729;49.486;10.792;2023-03-24T19:21:51;12.25;;;4.10;;
44995;SDS011;30729;49.486;10.792;2023-03-24T19:25:15;10.55;;;4.35;;
44995;SDS011;30729;49.486;10.792;2023-03-24T19:28:44;10.68;;;4.25;;
44995;SDS011;30729;49.486;10.792;2023-03-24T19:32:08;9.32;;;3.78;;
44995;SDS011;30729;49.486;10.792;2023-03-24T19:35:33;9.27;;;3.00;;
44995;SDS011;30729;49.486;10.792;2023-03-24T19:38:58;6.90;;;2.85;;
44995;SDS011;30729;49.486;10.792;2023-03-24T19:42:22;5.22;;;2.35;;
44995;SDS011;30729;49.486;10.792;2023-03-24T19:45:50;6.88;;;2.45;;
44995;SDS011;30729;49.486;10.792;2023-03-24T19:49:14;8.30;;;2.63;;
44995;SDS011;30729;49.486;10.792;2023-03-24T19:52:39;3.05;;;1.83;;
44995;SDS011;30729;49.486;10.792;2023-03-24T19:56:03;5.50;;;2.78;;
44995;SDS011;30729;49.486;10.792;2023-03-24T19:59:27;4.38;;;2.10;;
44995;SDS011;30729;49.486;10.792;2023-03-24T20:02:51;6.35;;;2.00;;
44995;SDS011;30729;49.486;10.792;2023-03-24T20:06:15;9.02;;;1.90;;
44995;SDS011;30729;49.486;10.792;2023-03-24T20:09:39;4.65;;;1.60;;
44995;SDS011;30729;49.486;10.792;2023-03-24T20:13:04;5.78;;;1.73;;
44995;SDS011;30729;49.486;10.792;2023-03-24T20:16:28;3.28;;;1.48;;
44995;SDS011;30729;49.486;10.792;2023-03-24T20:19:53;2.63;;;1.33;;
44995;SDS011;30729;49.486;10.792;2023-03-24T20:23:20;2.92;;;1.38;;
44995;SDS011;30729;49.486;10.792;2023-03-24T20:26:44;3.05;;;1.60;;
44995;SDS011;30729;49.486;10.792;2023-03-24T20:30:12;4.97;;;1.83;;
44995;SDS011;30729;49.486;10.792;2023-03-24T20:33:36;2.83;;;1.45;;
44995;SDS011;30729;49.486;10.792;2023-03-24T20:37:02;3.97;;;1.70;;
44995;SDS011;30729;49.486;10.792;2023-03-24T20:40:25;5.57;;;1.90;;
44995;SDS011;30729;49.486;10.792;2023-03-24T20:43:50;6.20;;;2.28;;
44995;SDS011;30729;49.486;10.792;2023-03-24T20:47:14;6.80;;;2.25;;
44995;SDS011;30729;49.486;10.792;2023-03-24T20:50:38;6.40;;;1.48;;
44995;SDS011;30729;49.486;10.792;2023-03-24T20:54:01;4.47;;;1.80;;
44995;SDS011;30729;49.486;10.792;2023-03-24T20:57:29;3.55;;;1.55;;
44995;SDS011;30729;49.486;10.792;2023-03-24T21:00:54;4.97;;;1.70;;
44995;SDS011;30729;49.486;10.792;2023-03-24T21:04:18;6.22;;;1.70;;
44995;SDS011;30729;49.486;10.792;2023-03-24T21:07:42;4.90;;;1.80;;
44995;SDS011;30729;49.486;10.792;2023-03-24T21:11:06;7.45;;;2.03;;
44995;SDS011;30729;49.486;10.792;2023-03-24T21:14:30;4.45;;;1.80;;
44995;SDS011;30729;49.486;10.792;2023-03-24T21:17:55;6.18;;;1.63;;
44995;SDS011;30729;49.486;10.792;2023-03-24T21:21:20;3.40;;;1.52;;
44995;SDS011;30729;49.486;10.792;2023-03-24T21:24:43;5.53;;;1.90;;
44995;SDS011;30729;49.486;10.792;2023-03-24T21:28:07;15.25;;;6.65;;
44995;SDS011;30729;49.486;10.792;2023-03-24T21:31:32;4.70;;;2.00;;
44995;SDS011;30729;49.486;10.792;2023-03-24T21:34:59;5.65;;;2.03;;
44995;SDS011;30729;49.486;10.792;2023-03-24T21:38:23;5.03;;;2.55;;
44995;SDS011;30729;49.486;10.792;2023-03-24T21:41:47;4.53;;;1.73;;
44995;SDS011;30729;49.486;10.792;2023-03-24T21:45:14;3.88;;;1.70;;
44995;SDS011;30729;49.486;10.792;2023-03-24T21:48:45;5.20;;;1.55;;
44995;SDS011;30729;49.486;10.792;2023-03-24T21:52:13;4.82;;;2.03;;
44995;SDS011;30729;49.486;10.792;2023-03-24T21:55:41;5.10;;;1.70;;
44995;SDS011;30729;49.486;10.792;2023-03-24T21:59:11;5.50;;;2.33;;
44995;SDS011;30729;49.486;10.792;2023-03-24T22:02:39;6.07;;;2.20;;